createdAt,value
2017-12-25T00:02:06.504Z,96404
2017-12-25T00:07:34.721Z,96400
2017-12-25T00:13:06.037Z,96393
2017-12-25T00:18:34.276Z,96394
2017-12-25T00:24:02.986Z,96397
2017-12-25T00:29:38.200Z,96394
2017-12-25T00:35:06.695Z,96384
2017-12-25T00:40:35.799Z,96380
2017-12-25T00:46:04.096Z,96386
2017-12-25T00:51:33.214Z,96381
2017-12-25T00:57:01.415Z,96378
2017-12-25T01:02:30.661Z,96380
2017-12-25T01:08:11.768Z,96387
2017-12-25T01:13:40.925Z,96381
2017-12-25T01:19:09.437Z,96383
2017-12-25T01:24:40.601Z,96384
2017-12-25T01:30:08.835Z,96385
2017-12-25T01:35:37.043Z,96386
2017-12-25T01:41:05.236Z,96404
2017-12-25T01:46:33.407Z,96393
2017-12-25T01:52:02.387Z,96384
2017-12-25T01:57:39.262Z,96374
2017-12-25T02:03:07.453Z,96366
2017-12-25T02:08:35.653Z,96360
2017-12-25T02:14:03.912Z,96354
2017-12-25T02:19:32.360Z,96368
2017-12-25T02:25:01.357Z,96354
2017-12-25T02:30:29.894Z,96343
2017-12-25T02:35:58.375Z,96342
2017-12-25T02:41:26.803Z,96340
2017-12-25T02:46:55.291Z,96348
2017-12-25T02:52:23.494Z,96332
2017-12-25T02:57:52.615Z,96331
2017-12-25T03:03:20.806Z,96336
2017-12-25T03:08:50.728Z,96333
2017-12-25T03:14:19.853Z,96318
2017-12-25T03:19:48.057Z,96314
2017-12-25T03:25:24.830Z,96303
2017-12-25T03:30:53.880Z,96295
2017-12-25T03:36:22.102Z,96306
2017-12-25T03:41:51.269Z,96294
2017-12-25T03:47:19.473Z,96287
2017-12-25T03:52:49.453Z,96286
2017-12-25T03:58:18.141Z,96290
2017-12-25T04:03:49.819Z,96284
2017-12-25T04:09:18.122Z,96285
2017-12-25T04:14:46.617Z,96282
2017-12-25T04:20:15.580Z,96284
2017-12-25T04:25:44.645Z,96276
2017-12-25T04:31:13.077Z,96282
2017-12-25T04:36:41.299Z,96271
2017-12-25T04:42:09.501Z,96273
2017-12-25T04:47:37.716Z,96263
2017-12-25T04:53:05.924Z,96273
2017-12-25T04:58:34.122Z,96279
2017-12-25T05:04:03.080Z,96265
2017-12-25T05:09:31.333Z,96255
2017-12-25T05:14:59.562Z,96245
2017-12-25T05:20:27.843Z,96247
2017-12-25T05:25:56.809Z,96244
2017-12-25T05:31:26.015Z,96239
2017-12-25T05:36:54.987Z,96246
2017-12-25T05:42:23.203Z,96239
2017-12-25T05:47:51.411Z,96231
2017-12-25T05:53:25.128Z,96219
2017-12-25T05:58:53.321Z,96215
2017-12-25T06:04:21.515Z,96210
2017-12-25T06:09:54.065Z,96219
2017-12-25T06:15:27.334Z,96222
2017-12-25T06:20:55.534Z,96210
2017-12-25T06:26:23.827Z,96217
2017-12-25T06:31:52.065Z,96210
2017-12-25T06:37:23.906Z,96210
2017-12-25T06:42:53.126Z,96201
2017-12-25T06:48:21.338Z,96199
2017-12-25T06:53:50.400Z,96196
2017-12-25T06:59:18.599Z,96193
2017-12-25T07:04:46.810Z,96187
2017-12-25T07:10:15.029Z,96190
2017-12-25T07:15:43.247Z,96185
2017-12-25T07:21:12.422Z,96181
2017-12-25T07:26:41.593Z,96164
2017-12-25T07:32:09.833Z,96171
2017-12-25T07:37:38.031Z,96176
2017-12-25T07:43:08.284Z,96182
2017-12-25T07:48:37.352Z,96186
2017-12-25T07:54:08.845Z,96185
2017-12-25T07:59:40.149Z,96180
2017-12-25T08:05:08.365Z,96180
2017-12-25T08:10:36.744Z,96178
2017-12-25T08:16:05.098Z,96177
2017-12-25T08:21:34.265Z,96174
2017-12-25T08:27:03.506Z,96169
2017-12-25T08:32:31.720Z,96178
2017-12-25T08:37:59.929Z,96175
2017-12-25T08:43:28.289Z,96175
2017-12-25T08:48:56.521Z,96163
2017-12-25T08:54:28.037Z,96178
2017-12-25T09:00:14.482Z,96179
2017-12-25T09:05:42.726Z,96171
2017-12-25T09:11:11.702Z,96164
2017-12-25T09:16:40.890Z,96168
2017-12-25T09:22:09.082Z,96165
2017-12-25T09:27:42.394Z,96169
2017-12-25T09:33:10.596Z,96171
2017-12-25T09:38:39.807Z,96167
2017-12-25T09:44:08.098Z,96161
2017-12-25T09:49:41.822Z,96151
2017-12-25T09:55:11.040Z,96149
2017-12-25T10:00:41.202Z,96150
2017-12-25T10:06:09.391Z,96136
2017-12-25T10:11:49.401Z,96135
2017-12-25T10:17:18.530Z,96116
2017-12-25T10:28:36.589Z,96107
2017-12-25T10:34:05.841Z,96097
2017-12-25T10:39:34.049Z,96093
2017-12-25T10:45:02.245Z,96070
2017-12-25T10:50:31.202Z,96063
2017-12-25T10:55:59.413Z,96055
2017-12-25T11:01:27.704Z,96053
2017-12-25T11:06:55.967Z,96032
2017-12-25T11:12:25.145Z,96027
2017-12-25T11:17:53.365Z,96005
2017-12-25T11:23:21.579Z,96009
2017-12-25T11:28:49.781Z,95979
2017-12-25T11:34:19.600Z,95975
2017-12-25T11:39:48.380Z,95965
2017-12-25T11:45:18.619Z,95960
2017-12-25T11:50:47.579Z,95957
2017-12-25T11:56:15.858Z,95943
2017-12-25T12:01:52.247Z,95939
2017-12-25T12:07:20.450Z,95926
2017-12-25T12:12:53.505Z,95926
2017-12-25T12:18:21.677Z,95916
2017-12-25T12:23:50.660Z,95898
2017-12-25T12:29:25.957Z,95895
2017-12-25T12:34:56.535Z,95873
2017-12-25T12:40:25.518Z,95870
2017-12-25T12:45:54.488Z,95860
2017-12-25T12:51:22.737Z,95859
2017-12-25T12:56:59.322Z,95857
2017-12-25T13:02:27.509Z,95845
2017-12-25T13:07:56.517Z,95834
2017-12-25T13:13:24.771Z,95823
2017-12-25T13:18:53.738Z,95821
2017-12-25T13:24:22.910Z,95819
2017-12-25T13:29:51.352Z,95800
2017-12-25T13:35:19.587Z,95803
2017-12-25T13:40:47.822Z,95795
2017-12-25T13:46:16.806Z,95795
2017-12-25T13:51:45.014Z,95792
2017-12-25T13:57:13.261Z,95804
2017-12-25T14:02:41.514Z,95796
2017-12-25T14:08:09.732Z,95797
2017-12-25T14:13:37.910Z,95803
2017-12-25T14:19:06.139Z,95791
2017-12-25T14:24:34.479Z,95792
2017-12-25T14:30:02.907Z,95776
2017-12-25T14:35:31.216Z,95781
2017-12-25T14:41:00.181Z,95784
2017-12-25T14:46:28.522Z,95765
2017-12-25T14:51:57.551Z,95767
2017-12-25T14:57:26.648Z,95767
2017-12-25T15:02:54.881Z,95754
2017-12-25T15:08:23.100Z,95750
2017-12-25T15:13:52.232Z,95741
2017-12-25T15:19:20.439Z,95741
2017-12-25T15:24:48.632Z,95744
2017-12-25T15:30:17.785Z,95731
2017-12-25T15:35:47.605Z,95724
2017-12-25T15:41:15.821Z,95716
2017-12-25T15:46:44.037Z,95708
2017-12-25T15:52:13.182Z,95699
2017-12-25T15:57:46.678Z,95703
2017-12-25T16:03:15.641Z,95697
2017-12-25T16:08:45.552Z,95682
2017-12-25T16:14:14.900Z,95670
2017-12-25T16:19:43.107Z,95666
2017-12-25T16:25:11.474Z,95655
2017-12-25T16:30:39.696Z,95647
2017-12-25T16:36:07.897Z,95642
2017-12-25T16:41:36.143Z,95637
2017-12-25T16:47:04.359Z,95631
2017-12-25T16:52:39.654Z,95629
2017-12-25T16:58:17.172Z,95621
2017-12-25T17:03:46.373Z,95614
2017-12-25T17:09:14.658Z,95613
2017-12-25T17:14:48.465Z,95619
2017-12-25T17:20:18.652Z,95619
2017-12-25T17:25:57.759Z,95603
2017-12-25T17:31:27.724Z,95594
2017-12-25T17:36:56.707Z,95596
2017-12-25T17:42:30.987Z,95596
2017-12-25T17:47:59.886Z,95591
2017-12-25T17:53:28.116Z,95586
2017-12-25T17:58:58.012Z,95584
2017-12-25T18:04:27.262Z,95573
2017-12-25T18:10:04.736Z,95570
2017-12-25T18:15:39.966Z,95565
2017-12-25T18:21:18.125Z,95559
2017-12-25T18:26:47.864Z,95557
2017-12-25T18:32:16.086Z,95555
2017-12-25T18:37:47.510Z,95554
2017-12-25T18:43:16.965Z,95548
2017-12-25T18:48:49.289Z,95548
2017-12-25T18:54:18.099Z,95546
2017-12-25T18:59:58.144Z,95541
2017-12-25T19:05:26.453Z,95535
2017-12-25T19:10:56.469Z,95526
2017-12-25T19:16:25.672Z,95523
2017-12-25T19:21:54.757Z,95513
2017-12-25T19:27:29.138Z,95505
2017-12-25T19:32:57.458Z,95490
2017-12-25T19:38:27.661Z,95484
2017-12-25T19:43:55.943Z,95495
2017-12-25T19:49:24.138Z,95477
2017-12-25T19:54:52.359Z,95475
2017-12-25T20:00:22.485Z,95478
2017-12-25T20:05:50.761Z,95467
2017-12-25T20:11:27.409Z,95452
2017-12-25T20:16:57.664Z,95444
2017-12-25T20:22:25.994Z,95432
2017-12-25T20:27:54.218Z,95446
2017-12-25T20:33:22.445Z,95414
2017-12-25T20:38:57.192Z,95419
2017-12-25T20:44:35.568Z,95427
2017-12-25T20:50:03.852Z,95427
2017-12-25T20:55:33.997Z,95425
2017-12-25T21:01:03.129Z,95429
2017-12-25T21:06:31.511Z,95416
2017-12-25T21:12:02.880Z,95412
2017-12-25T21:17:31.346Z,95408
2017-12-25T21:23:00.672Z,95403
2017-12-25T21:28:28.902Z,95410
2017-12-25T21:33:57.151Z,95402
2017-12-25T21:39:25.432Z,95402
2017-12-25T21:44:56.428Z,95398
2017-12-25T21:50:25.422Z,95383
2017-12-25T21:55:54.588Z,95396
2017-12-25T22:01:22.863Z,95396
2017-12-25T22:06:51.133Z,95387
2017-12-25T22:12:19.353Z,95381
2017-12-25T22:17:47.554Z,95383
2017-12-25T22:23:20.009Z,95382
2017-12-25T22:28:48.224Z,95382
2017-12-25T22:34:16.422Z,95376
2017-12-25T22:39:44.673Z,95363
2017-12-25T22:45:14.374Z,95345
2017-12-25T22:50:42.603Z,95330
2017-12-25T22:56:11.805Z,95332
2017-12-25T23:01:40.845Z,95319
2017-12-25T23:07:09.887Z,95318
2017-12-25T23:12:38.853Z,95316
2017-12-25T23:18:07.143Z,95306
2017-12-25T23:23:36.458Z,95307
2017-12-25T23:29:17.009Z,95291
2017-12-25T23:34:45.990Z,95289
2017-12-25T23:40:14.182Z,95283
2017-12-25T23:45:43.383Z,95282
2017-12-25T23:51:11.603Z,95275
2017-12-25T23:56:40.794Z,95275
